Time;durP1;ratioP1;P1;durP2;ratioP2;P2;SDS_P1;SDS_P2;PMS_P1;PMS_P2;Temp;Humidity;BMP_temperature;BMP_pressure;BME280_temperature;BME280_humidity;BME280_pressure;Samples;Min_cycle;Max_cycle;Signal;HPM_P1;HPM_P2
2024/01/04 00:01:16;;;;;;;2.60;1.60;;;9.30;99.90;;;;;;5136068;27;20460;-71
2024/01/04 00:03:44;;;;;;;7.67;1.70;;;9.30;99.90;;;;;;5136127;27;20504;-71
2024/01/04 00:06:11;;;;;;;3.20;2.00;;;9.40;99.90;;;;;;5100529;27;20441;-71
2024/01/04 00:08:38;;;;;;;5.80;2.37;;;9.30;99.90;;;;;;5135661;27;20442;-71
2024/01/04 00:11:06;;;;;;;3.37;1.50;;;9.30;99.90;;;;;;5135689;28;20482;-71
2024/01/04 00:13:33;;;;;;;6.10;1.87;;;9.30;99.90;;;;;;5136026;28;20450;-71
2024/01/04 00:16:00;;;;;;;4.37;1.70;;;9.40;99.90;;;;;;5135687;28;20438;-71
2024/01/04 00:18:27;;;;;;;5.10;2.30;;;9.40;99.90;;;;;;5134852;28;20490;-72
2024/01/04 00:20:55;;;;;;;5.40;2.00;;;9.40;99.90;;;;;;5134915;28;20458;-72
2024/01/04 00:23:22;;;;;;;4.47;2.13;;;9.50;99.90;;;;;;5134959;28;20445;-71
2024/01/04 00:25:48;;;;;;;5.40;1.80;;;9.50;99.90;;;;;;5135257;28;20816;-71
2024/01/04 00:28:15;;;;;;;9.53;2.10;;;9.40;99.90;;;;;;5135798;28;20441;-72
2024/01/04 00:30:45;;;;;;;4.03;2.20;;;9.40;99.90;;;;;;5134427;28;20469;-71
2024/01/04 00:33:12;;;;;;;3.63;2.27;;;9.40;99.90;;;;;;5135253;28;20441;-71
2024/01/04 00:35:38;;;;;;;4.73;1.97;;;9.40;99.90;;;;;;5116839;28;20889;-71
2024/01/04 00:38:07;;;;;;;4.07;2.30;;;9.50;99.90;;;;;;5134719;28;20827;-71
2024/01/04 00:40:35;;;;;;;12.50;2.87;;;9.50;99.90;;;;;;5136035;27;20461;-71
2024/01/04 00:43:03;;;;;;;8.43;2.50;;;9.50;99.90;;;;;;5139065;27;20460;-72
2024/01/04 00:45:30;;;;;;;3.43;2.17;;;9.50;99.90;;;;;;5121004;27;20438;-72
2024/01/04 00:47:57;;;;;;;5.10;2.23;;;9.50;99.90;;;;;;5138955;27;20442;-72
2024/01/04 00:50:24;;;;;;;4.43;2.63;;;9.50;99.90;;;;;;5138555;27;20460;-72
2024/01/04 00:52:51;;;;;;;6.53;2.73;;;9.50;99.90;;;;;;5138158;27;20488;-71
2024/01/04 00:55:19;;;;;;;7.33;2.50;;;9.60;99.90;;;;;;5138422;27;20445;-71
2024/01/04 00:57:46;;;;;;;9.57;3.23;;;9.50;99.90;;;;;;5119199;27;20442;-71
2024/01/04 01:00:14;;;;;;;7.33;3.40;;;9.50;99.90;;;;;;5137766;27;20458;-71
2024/01/04 01:02:40;;;;;;;5.37;3.63;;;9.50;99.90;;;;;;5137971;27;20440;-71
2024/01/04 01:05:08;;;;;;;4.27;2.40;;;9.50;99.90;;;;;;5138042;27;20438;-71
2024/01/04 01:07:34;;;;;;;8.20;4.20;;;9.50;99.90;;;;;;5138018;27;20438;-71
2024/01/04 01:10:03;;;;;;;10.63;3.27;;;9.50;99.90;;;;;;5119563;27;20466;-71
2024/01/04 01:12:31;;;;;;;4.63;3.63;;;9.50;99.90;;;;;;5137856;27;20488;-71
2024/01/04 01:14:58;;;;;;;5.17;3.10;;;9.50;99.90;;;;;;5137900;27;20533;-71
2024/01/04 01:17:24;;;;;;;4.87;2.97;;;9.50;99.90;;;;;;5137509;27;20935;-70
2024/01/04 01:19:51;;;;;;;5.20;3.37;;;9.50;99.90;;;;;;5137553;27;20457;-70
2024/01/04 01:22:19;;;;;;;4.17;2.70;;;9.50;99.90;;;;;;5137011;27;20927;-71
2024/01/04 01:24:45;;;;;;;3.20;2.87;;;9.50;99.90;;;;;;5119234;27;20456;-70
2024/01/04 01:27:12;;;;;;;7.30;3.33;;;9.50;99.90;;;;;;5137433;27;20438;-70
2024/01/04 01:29:40;;;;;;;7.13;3.73;;;9.50;99.90;;;;;;5137576;27;20457;-70
2024/01/04 01:32:07;;;;;;;4.37;3.67;;;9.50;99.90;;;;;;5137124;27;20477;-70
2024/01/04 01:34:34;;;;;;;7.10;3.30;;;9.40;99.90;;;;;;5138185;27;20823;-70
2024/01/04 01:37:01;;;;;;;7.17;3.80;;;9.40;99.90;;;;;;5137385;27;20442;-70
2024/01/04 01:39:28;;;;;;;8.67;5.10;;;9.40;99.90;;;;;;5137063;27;20805;-70
2024/01/04 01:41:55;;;;;;;8.00;3.73;;;9.40;99.90;;;;;;5136997;27;20940;-69
2024/01/04 01:44:23;;;;;;;6.23;3.70;;;9.40;99.90;;;;;;5137459;27;20898;-69
2024/01/04 01:46:51;;;;;;;9.57;4.00;;;9.40;99.90;;;;;;5137414;27;20818;-70
2024/01/04 01:49:17;;;;;;;5.60;3.83;;;9.40;99.90;;;;;;5141240;27;20469;-70
2024/01/04 01:51:44;;;;;;;5.83;4.40;;;9.40;99.90;;;;;;5140408;27;20481;-70
2024/01/04 01:54:12;;;;;;;4.07;3.47;;;9.50;99.90;;;;;;5137581;27;20456;-69
2024/01/04 01:56:39;;;;;;;6.07;3.30;;;9.50;99.90;;;;;;5146699;27;20458;-69
2024/01/04 01:59:08;;;;;;;4.83;3.40;;;9.50;99.90;;;;;;5141721;27;20450;-70
2024/01/04 02:01:35;;;;;;;6.80;3.20;;;9.50;99.90;;;;;;5139110;27;20434;-69
2024/01/04 02:04:04;;;;;;;4.27;3.20;;;9.50;99.90;;;;;;5138279;27;20442;-69
2024/01/04 02:06:31;;;;;;;4.03;3.43;;;9.50;99.90;;;;;;5136940;27;20453;-70
2024/01/04 02:08:57;;;;;;;4.97;3.13;;;9.50;99.90;;;;;;5137821;27;20434;-70
2024/01/04 02:11:24;;;;;;;2.50;2.30;;;9.40;99.90;;;;;;5136475;27;20438;-70
2024/01/04 02:13:51;;;;;;;8.47;2.77;;;9.40;99.90;;;;;;5137166;27;20531;-70
2024/01/04 02:16:18;;;;;;;3.60;2.67;;;9.50;99.90;;;;;;5136748;27;20453;-70
2024/01/04 02:18:44;;;;;;;6.13;2.60;;;9.50;99.90;;;;;;5118412;27;20783;-70
2024/01/04 02:21:12;;;;;;;5.80;2.80;;;9.50;99.90;;;;;;5135865;27;20465;-70
2024/01/04 02:23:41;;;;;;;11.43;4.30;;;9.40;99.90;;;;;;5136244;27;20434;-70
2024/01/04 02:26:08;;;;;;;10.67;3.83;;;9.50;99.90;;;;;;5136941;27;20446;-70
2024/01/04 02:28:34;;;;;;;7.83;3.63;;;9.40;99.90;;;;;;5135981;27;20438;-70
2024/01/04 02:31:01;;;;;;;9.80;4.50;;;9.40;99.90;;;;;;5136711;27;20466;-70
2024/01/04 02:33:28;;;;;;;12.00;4.27;;;9.40;99.90;;;;;;5136037;27;20481;-70
2024/01/04 02:35:55;;;;;;;6.40;4.20;;;9.50;99.90;;;;;;5136228;27;20441;-70
2024/01/04 02:38:21;;;;;;;4.97;3.93;;;9.50;99.90;;;;;;5135895;27;20818;-70
2024/01/04 02:40:50;;;;;;;10.77;4.23;;;9.50;99.90;;;;;;5136014;27;20458;-70
2024/01/04 02:43:17;;;;;;;6.07;4.57;;;9.50;99.90;;;;;;5136300;27;20442;-70
2024/01/04 02:45:43;;;;;;;7.00;4.27;;;9.50;99.90;;;;;;5136070;27;20493;-70
2024/01/04 02:48:11;;;;;;;7.57;4.50;;;9.40;99.90;;;;;;5135460;27;20950;-70
2024/01/04 02:50:38;;;;;;;10.40;4.43;;;9.50;99.90;;;;;;5117372;27;20474;-70
2024/01/04 02:53:05;;;;;;;6.27;4.40;;;9.50;99.90;;;;;;5135766;27;20525;-70
2024/01/04 02:55:32;;;;;;;7.00;4.27;;;9.50;99.90;;;;;;5136355;27;20442;-70
2024/01/04 02:58:00;;;;;;;6.20;3.93;;;9.50;99.90;;;;;;5135650;27;20434;-70
2024/01/04 03:00:27;;;;;;;6.13;3.93;;;9.40;99.90;;;;;;5135628;27;20457;-70
2024/01/04 03:02:54;;;;;;;6.63;3.90;;;9.50;99.90;;;;;;5135582;27;20438;-70
2024/01/04 03:05:21;;;;;;;9.43;3.67;;;9.40;99.90;;;;;;5135482;27;20528;-70
2024/01/04 03:07:47;;;;;;;9.10;3.80;;;9.40;99.90;;;;;;5117071;27;20840;-70
2024/01/04 03:10:14;;;;;;;7.40;4.53;;;9.40;99.90;;;;;;5134940;27;20460;-70
2024/01/04 03:12:41;;;;;;;7.53;3.87;;;9.50;99.90;;;;;;5135923;27;20473;-70
2024/01/04 03:15:10;;;;;;;8.80;4.37;;;9.50;99.90;;;;;;5135348;27;20450;-71
2024/01/04 03:17:37;;;;;;;5.33;3.93;;;9.50;99.90;;;;;;5135117;27;20448;-70
2024/01/04 03:20:05;;;;;;;8.13;4.30;;;9.60;99.90;;;;;;5135222;27;20458;-70
2024/01/04 03:22:32;;;;;;;12.77;4.50;;;9.50;99.90;;;;;;5135316;27;20445;-71
2024/01/04 03:24:58;;;;;;;7.10;5.00;;;9.60;99.90;;;;;;5116938;27;20539;-70
2024/01/04 03:27:25;;;;;;;10.70;4.70;;;9.60;99.90;;;;;;5136025;27;20441;-70
2024/01/04 03:29:54;;;;;;;8.97;4.77;;;9.50;99.90;;;;;;5134953;27;20461;-71
2024/01/04 03:32:22;;;;;;;9.50;5.00;;;9.50;99.90;;;;;;5117415;27;20478;-71
2024/01/04 03:34:49;;;;;;;4.60;3.97;;;9.50;99.90;;;;;;5134793;27;20438;-71
2024/01/04 03:37:16;;;;;;;10.20;4.67;;;9.40;99.90;;;;;;5134867;27;20441;-70
2024/01/04 03:39:43;;;;;;;12.13;5.10;;;9.40;99.90;;;;;;5134845;27;20502;-71
2024/01/04 03:42:09;;;;;;;10.43;4.77;;;9.40;99.90;;;;;;5135307;27;20854;-70
2024/01/04 03:44:37;;;;;;;10.07;3.90;;;9.40;99.90;;;;;;5135041;27;20438;-70
2024/01/04 03:47:05;;;;;;;7.17;4.00;;;9.40;99.90;;;;;;5116885;27;20477;-70
2024/01/04 03:49:33;;;;;;;9.30;4.47;;;9.50;99.90;;;;;;5134954;27;20466;-71
2024/01/04 03:52:00;;;;;;;9.50;4.27;;;9.40;99.90;;;;;;5134651;27;20529;-70
2024/01/04 03:54:26;;;;;;;12.50;3.47;;;9.40;99.90;;;;;;5134818;27;20525;-70
2024/01/04 03:56:54;;;;;;;5.83;4.00;;;9.40;99.90;;;;;;5134682;27;20446;-70
2024/01/04 03:59:21;;;;;;;12.17;4.77;;;9.40;99.90;;;;;;5100006;27;20465;-70
2024/01/04 04:01:48;;;;;;;7.30;3.63;;;9.40;99.90;;;;;;5135093;27;20442;-70
2024/01/04 04:04:17;;;;;;;8.10;4.23;;;9.40;99.90;;;;;;5116662;27;20495;-70
2024/01/04 04:06:45;;;;;;;9.70;4.23;;;9.40;99.90;;;;;;5134051;27;20441;-70
2024/01/04 04:09:11;;;;;;;8.33;4.43;;;9.40;99.90;;;;;;5134579;27;21020;-71
2024/01/04 04:11:38;;;;;;;6.13;4.37;;;9.50;99.90;;;;;;5134506;28;20453;-71
2024/01/04 04:14:06;;;;;;;10.27;5.00;;;9.40;99.90;;;;;;5139789;28;20484;-70
2024/01/04 04:16:32;;;;;;;8.50;4.50;;;9.40;99.90;;;;;;5147955;27;20438;-71
2024/01/04 04:18:59;;;;;;;8.10;4.70;;;9.40;99.90;;;;;;5144487;27;20952;-70
2024/01/04 04:21:26;;;;;;;8.10;4.30;;;9.40;99.90;;;;;;5142567;27;20452;-70
2024/01/04 04:23:54;;;;;;;9.60;5.10;;;9.50;99.90;;;;;;5142614;27;20441;-70
2024/01/04 04:26:21;;;;;;;10.77;5.50;;;9.50;99.90;;;;;;5142286;27;20442;-70
2024/01/04 04:28:48;;;;;;;10.50;5.30;;;9.50;99.90;;;;;;5148707;27;20434;-70
2024/01/04 04:31:15;;;;;;;13.80;5.73;;;9.60;99.90;;;;;;5142396;27;20453;-70
2024/01/04 04:33:44;;;;;;;14.23;6.10;;;9.60;99.90;;;;;;5142352;27;20477;-70
2024/01/04 04:36:11;;;;;;;12.10;6.53;;;9.60;99.90;;;;;;5123899;27;20519;-69
2024/01/04 04:38:37;;;;;;;9.10;5.90;;;9.50;99.90;;;;;;5141271;27;20484;-69
2024/01/04 04:41:07;;;;;;;15.53;6.37;;;9.50;99.90;;;;;;5106127;27;20493;-69
2024/01/04 04:43:35;;;;;;;15.27;5.57;;;9.50;99.90;;;;;;5141513;27;20453;-69
2024/01/04 04:46:08;;;;;;;13.90;4.90;;;9.50;99.90;;;;;;5141006;27;20930;-69
2024/01/04 04:48:36;;;;;;;10.77;4.57;;;9.50;99.90;;;;;;5122800;27;20935;-69
2024/01/04 04:51:03;;;;;;;11.07;6.37;;;9.50;99.90;;;;;;5123065;27;20878;-68
2024/01/04 04:53:30;;;;;;;11.60;6.40;;;9.50;99.90;;;;;;5140801;27;21008;-69
2024/01/04 04:55:57;;;;;;;13.17;6.27;;;9.50;99.90;;;;;;5140942;27;20460;-70
2024/01/04 04:58:25;;;;;;;12.93;6.80;;;9.50;99.90;;;;;;5141188;27;20445;-69
2024/01/04 05:00:52;;;;;;;11.20;6.63;;;9.50;99.90;;;;;;5141141;27;20469;-69
2024/01/04 05:03:20;;;;;;;8.50;5.50;;;9.40;99.90;;;;;;5141089;27;20434;-69
2024/01/04 05:05:46;;;;;;;9.27;6.13;;;9.40;99.90;;;;;;5141105;27;20437;-69
2024/01/04 05:08:13;;;;;;;8.57;4.70;;;9.40;99.90;;;;;;5122696;27;20440;-69
2024/01/04 05:10:40;;;;;;;7.93;4.50;;;9.40;99.90;;;;;;5140835;27;20461;-69
2024/01/04 05:13:07;;;;;;;9.30;4.07;;;9.40;99.90;;;;;;5141017;27;20516;-69
2024/01/04 05:15:35;;;;;;;8.17;3.07;;;9.30;99.90;;;;;;5141004;27;20441;-69
2024/01/04 05:18:02;;;;;;;7.70;2.40;;;9.30;99.90;;;;;;5141009;27;20441;-70
2024/01/04 05:20:28;;;;;;;2.10;1.70;;;9.30;99.90;;;;;;5140817;27;20453;-70
2024/01/04 05:22:55;;;;;;;3.20;1.43;;;9.30;99.90;;;;;;5140766;27;20845;-70
2024/01/04 05:25:22;;;;;;;2.60;1.47;;;9.30;99.90;;;;;;5140514;27;20485;-70
2024/01/04 05:27:49;;;;;;;3.67;1.77;;;9.20;99.90;;;;;;5136786;27;20441;-69
2024/01/04 05:30:16;;;;;;;2.30;1.50;;;9.20;99.90;;;;;;5137462;27;20473;-69
2024/01/04 05:32:44;;;;;;;2.20;1.80;;;9.20;99.90;;;;;;5136767;27;21044;-69
2024/01/04 05:35:11;;;;;;;2.90;1.80;;;9.10;99.90;;;;;;5137132;27;20438;-70
2024/01/04 05:37:38;;;;;;;2.80;1.70;;;9.10;99.90;;;;;;5136951;27;20449;-69
2024/01/04 05:40:06;;;;;;;1.77;1.60;;;9.10;99.90;;;;;;5137375;27;20470;-70
2024/01/04 05:42:33;;;;;;;4.40;2.20;;;9.00;99.90;;;;;;5137354;27;20529;-69
2024/01/04 05:45:00;;;;;;;2.60;1.60;;;9.00;99.90;;;;;;5136935;27;20446;-69
2024/01/04 05:47:27;;;;;;;4.70;1.50;;;9.00;99.90;;;;;;5137149;27;20900;-68
2024/01/04 05:49:55;;;;;;;1.77;1.67;;;9.00;99.90;;;;;;5137127;27;20458;-70
2024/01/04 05:52:22;;;;;;;1.73;1.60;;;9.00;99.90;;;;;;5137020;27;20446;-68
2024/01/04 05:54:49;;;;;;;2.00;1.40;;;8.90;99.90;;;;;;5136978;27;20438;-68
2024/01/04 05:57:18;;;;;;;1.87;1.20;;;8.90;99.90;;;;;;5136558;27;20446;-68
2024/01/04 05:59:45;;;;;;;2.20;1.53;;;8.90;99.90;;;;;;5136823;27;20498;-68
2024/01/04 06:02:12;;;;;;;2.20;1.43;;;8.90;99.90;;;;;;5136861;27;20446;-68
2024/01/04 06:04:39;;;;;;;1.90;1.70;;;8.90;99.90;;;;;;5136780;27;20445;-68
2024/01/04 06:07:07;;;;;;;2.87;1.73;;;8.90;99.90;;;;;;5136821;27;20461;-68
2024/01/04 06:09:33;;;;;;;3.03;1.93;;;8.90;99.90;;;;;;5136202;27;20476;-69
2024/01/04 06:12:00;;;;;;;3.40;2.00;;;8.90;99.90;;;;;;5135816;27;20442;-68
2024/01/04 06:14:30;;;;;;;2.57;2.30;;;8.90;99.90;;;;;;5136507;27;20477;-69
2024/01/04 06:16:57;;;;;;;2.60;2.10;;;9.00;99.90;;;;;;5136574;27;20494;-69
2024/01/04 06:19:25;;;;;;;4.60;1.90;;;8.90;99.90;;;;;;5136212;27;20466;-69
2024/01/04 06:21:52;;;;;;;5.77;3.00;;;8.90;99.90;;;;;;5136354;27;20495;-68
2024/01/04 06:24:20;;;;;;;3.37;1.80;;;8.90;99.90;;;;;;5136360;27;20445;-68
2024/01/04 06:26:47;;;;;;;2.50;2.20;;;8.90;99.90;;;;;;5136178;27;20441;-68
2024/01/04 06:29:14;;;;;;;1.60;1.50;;;8.90;99.90;;;;;;5136117;27;20470;-68
2024/01/04 06:31:40;;;;;;;4.40;1.50;;;8.90;99.90;;;;;;5139877;27;20445;-68
2024/01/04 06:34:07;;;;;;;1.60;1.50;;;8.80;99.90;;;;;;5138632;27;20478;-68
2024/01/04 06:36:34;;;;;;;2.20;1.20;;;8.90;99.90;;;;;;5138134;27;20438;-69
2024/01/04 06:39:01;;;;;;;1.70;0.97;;;8.90;99.90;;;;;;5136492;27;20442;-69
2024/01/04 06:41:30;;;;;;;0.97;0.97;;;8.90;99.90;;;;;;5136178;27;20461;-69
2024/01/04 06:43:56;;;;;;;1.20;0.87;;;8.90;99.90;;;;;;5136228;27;20440;-69
2024/01/04 06:46:23;;;;;;;0.70;0.70;;;8.90;99.90;;;;;;5136358;27;20836;-68
2024/01/04 06:48:50;;;;;;;2.03;0.80;;;8.90;99.90;;;;;;5136053;27;20446;-68
2024/01/04 06:51:17;;;;;;;0.60;0.60;;;8.90;99.90;;;;;;5135818;27;20462;-68
2024/01/04 06:53:43;;;;;;;0.90;0.90;;;8.90;99.90;;;;;;5136125;27;20481;-69
2024/01/04 06:56:11;;;;;;;1.33;0.90;;;8.80;99.90;;;;;;5135591;27;20454;-68
2024/01/04 06:58:39;;;;;;;1.13;1.00;;;8.90;99.90;;;;;;5135683;27;21004;-68
2024/01/04 07:01:06;;;;;;;1.10;0.97;;;8.80;99.90;;;;;;5135665;27;20461;-68
2024/01/04 07:03:33;;;;;;;1.00;0.90;;;8.90;99.90;;;;;;5136091;27;20438;-68
2024/01/04 07:06:00;;;;;;;3.10;1.47;;;8.90;99.90;;;;;;5138986;27;20438;-69
2024/01/04 07:08:26;;;;;;;2.23;1.30;;;8.90;99.90;;;;;;5137689;27;20444;-69
2024/01/04 07:10:53;;;;;;;1.53;1.43;;;8.90;99.90;;;;;;5140212;27;20465;-68
2024/01/04 07:13:20;;;;;;;1.70;1.60;;;8.90;99.90;;;;;;5141480;27;20482;-68
2024/01/04 07:15:49;;;;;;;2.47;2.27;;;8.90;99.90;;;;;;5141870;27;20818;-69
2024/01/04 07:18:17;;;;;;;2.20;2.00;;;8.90;99.90;;;;;;5141398;27;20441;-68
2024/01/04 07:20:44;;;;;;;5.53;2.50;;;8.90;99.90;;;;;;5139887;27;20525;-68
2024/01/04 07:23:11;;;;;;;4.77;2.47;;;8.90;99.90;;;;;;5138225;27;20434;-68
2024/01/04 07:25:37;;;;;;;3.33;2.40;;;9.00;99.90;;;;;;5138549;27;20477;-68
2024/01/04 07:28:05;;;;;;;4.17;3.00;;;8.90;99.90;;;;;;5137180;27;20809;-68
2024/01/04 07:30:33;;;;;;;5.47;3.73;;;8.90;99.90;;;;;;5137533;27;20500;-68
2024/01/04 07:33:02;;;;;;;5.63;2.83;;;8.90;99.90;;;;;;5137033;27;20811;-68
2024/01/04 07:35:28;;;;;;;9.03;2.87;;;8.90;99.90;;;;;;5136532;27;20442;-68
2024/01/04 07:37:55;;;;;;;3.67;2.87;;;9.00;99.90;;;;;;5136715;27;20811;-69
2024/01/04 07:40:22;;;;;;;5.50;3.30;;;9.00;99.90;;;;;;5135659;27;20462;-68
2024/01/04 07:42:49;;;;;;;8.40;3.80;;;9.00;99.90;;;;;;5135237;27;20449;-69
2024/01/04 07:45:16;;;;;;;6.63;3.20;;;9.00;99.90;;;;;;5135702;27;20919;-68
2024/01/04 07:47:42;;;;;;;6.80;3.40;;;9.00;99.90;;;;;;5135855;27;20446;-69
2024/01/04 07:50:11;;;;;;;4.43;3.80;;;9.10;99.90;;;;;;5134712;27;20458;-68
2024/01/04 07:52:38;;;;;;;4.77;3.20;;;9.10;99.90;;;;;;5135205;27;20446;-68
2024/01/04 07:55:06;;;;;;;5.60;2.70;;;9.10;99.90;;;;;;5135587;27;20485;-68
2024/01/04 07:57:33;;;;;;;3.43;2.40;;;9.10;99.90;;;;;;5134931;27;20453;-68
2024/01/04 07:59:59;;;;;;;5.33;2.37;;;9.10;99.90;;;;;;5134939;27;20465;-68
2024/01/04 08:02:28;;;;;;;5.20;2.30;;;9.10;99.90;;;;;;5134873;27;20442;-68
2024/01/04 08:04:56;;;;;;;3.07;2.00;;;9.10;99.90;;;;;;5135081;27;20513;-68
2024/01/04 08:07:26;;;;;;;5.80;2.60;;;9.10;99.90;;;;;;5134901;27;20445;-68
2024/01/04 08:09:53;;;;;;;3.60;2.30;;;9.10;99.90;;;;;;5135023;27;20518;-70
2024/01/04 08:12:20;;;;;;;3.47;2.20;;;9.10;99.90;;;;;;5134926;27;20442;-69
2024/01/04 08:14:47;;;;;;;2.27;2.07;;;9.10;99.90;;;;;;5134608;28;20986;-69
2024/01/04 08:17:13;;;;;;;2.33;2.10;;;9.20;99.90;;;;;;5134883;28;20488;-69
2024/01/04 08:19:40;;;;;;;4.93;1.97;;;9.20;99.90;;;;;;5134591;28;20462;-69
2024/01/04 08:22:07;;;;;;;6.77;2.40;;;9.20;99.90;;;;;;5134789;28;20465;-68
2024/01/04 08:24:36;;;;;;;5.13;2.77;;;9.20;99.90;;;;;;5134777;28;20470;-69
2024/01/04 08:27:03;;;;;;;11.80;3.70;;;9.20;99.90;;;;;;5134951;28;20449;-69
2024/01/04 08:29:30;;;;;;;4.50;3.40;;;9.10;99.90;;;;;;5134467;28;20465;-69
2024/01/04 08:31:57;;;;;;;7.13;3.80;;;9.10;99.90;;;;;;5134747;28;20524;-69
2024/01/04 08:34:23;;;;;;;5.33;3.73;;;9.10;99.90;;;;;;5134321;28;20477;-69
2024/01/04 08:36:50;;;;;;;4.20;3.87;;;9.10;99.90;;;;;;5134681;28;20434;-69
2024/01/04 08:39:17;;;;;;;5.50;4.23;;;9.20;99.90;;;;;;5134468;28;20461;-69
2024/01/04 08:41:45;;;;;;;6.53;4.03;;;9.20;99.90;;;;;;5134493;28;20434;-69
2024/01/04 08:44:12;;;;;;;12.33;4.33;;;9.20;99.90;;;;;;5134519;28;20456;-69
2024/01/04 08:46:38;;;;;;;7.60;3.87;;;9.30;99.90;;;;;;5134166;28;20442;-69
2024/01/04 08:49:07;;;;;;;13.87;4.33;;;9.30;99.90;;;;;;5136440;28;20437;-69
2024/01/04 08:51:34;;;;;;;8.13;4.13;;;9.40;99.90;;;;;;5136634;28;20442;-68
2024/01/04 08:54:01;;;;;;;6.77;3.23;;;9.40;99.90;;;;;;5135340;28;20477;-68
2024/01/04 08:56:28;;;;;;;6.83;3.80;;;9.40;99.90;;;;;;5134733;28;20472;-68
2024/01/04 08:58:56;;;;;;;3.97;2.93;;;9.50;99.90;;;;;;5134835;28;20453;-68
2024/01/04 09:01:23;;;;;;;9.27;3.53;;;9.50;99.90;;;;;;5135712;27;20441;-68
2024/01/04 09:03:50;;;;;;;4.80;2.73;;;9.50;99.90;;;;;;5138373;27;20440;-68
2024/01/04 09:06:17;;;;;;;9.67;4.07;;;9.50;99.90;;;;;;5138181;27;20437;-68
2024/01/04 09:08:44;;;;;;;5.13;2.93;;;9.60;99.90;;;;;;5137649;27;20446;-68
2024/01/04 09:11:10;;;;;;;6.17;3.33;;;9.50;99.90;;;;;;5119742;27;20494;-67
2024/01/04 09:13:37;;;;;;;11.00;4.67;;;9.40;99.90;;;;;;5138272;27;20789;-68
2024/01/04 09:16:06;;;;;;;12.80;7.10;;;9.40;99.90;;;;;;5137927;27;20965;-67
2024/01/04 09:18:33;;;;;;;12.50;8.47;;;9.30;99.90;;;;;;5138020;27;20471;-67
2024/01/04 09:21:00;;;;;;;19.97;11.07;;;9.30;99.90;;;;;;5137648;27;20462;-68
2024/01/04 09:23:26;;;;;;;24.00;14.03;;;9.30;99.90;;;;;;5137746;27;20441;-68
2024/01/04 09:25:53;;;;;;;18.87;14.33;;;9.30;99.90;;;;;;5137884;27;20441;-68
2024/01/04 09:28:22;;;;;;;19.93;12.20;;;9.40;99.90;;;;;;5137768;27;20438;-68
2024/01/04 09:30:49;;;;;;;18.73;10.80;;;9.40;99.90;;;;;;5137606;27;20825;-68
2024/01/04 09:33:17;;;;;;;11.20;8.67;;;9.50;99.90;;;;;;5137876;27;20915;-68
2024/01/04 09:35:44;;;;;;;11.43;7.73;;;9.60;99.90;;;;;;5137625;27;20481;-68
2024/01/04 09:38:10;;;;;;;13.90;6.67;;;9.60;99.90;;;;;;5137568;27;20438;-68
2024/01/04 09:40:37;;;;;;;10.50;5.87;;;9.60;99.90;;;;;;5137254;27;20458;-68
2024/01/04 09:43:04;;;;;;;7.00;4.83;;;9.60;99.90;;;;;;5138843;27;20445;-69
2024/01/04 09:45:33;;;;;;;12.10;4.70;;;9.60;99.90;;;;;;5118865;27;20954;-69
2024/01/04 09:48:04;;;;;;;9.87;4.10;;;9.70;99.90;;;;;;5136990;27;20438;-69
2024/01/04 09:50:34;;;;;;;5.50;3.07;;;9.70;99.90;;;;;;5138319;27;20465;-69
2024/01/04 09:53:02;;;;;;;6.10;3.23;;;9.70;99.90;;;;;;5136908;27;20947;-69
2024/01/04 09:55:30;;;;;;;4.43;3.43;;;9.70;99.90;;;;;;5118858;27;20509;-69
2024/01/04 09:57:59;;;;;;;6.17;3.53;;;9.70;99.90;;;;;;5137166;27;20896;-69
2024/01/04 10:00:27;;;;;;;4.47;3.20;;;9.80;99.90;;;;;;5136828;27;20560;-69
2024/01/04 10:02:54;;;;;;;4.77;3.87;;;9.80;99.90;;;;;;5136738;27;20923;-69
2024/01/04 10:05:22;;;;;;;5.87;4.40;;;9.90;99.90;;;;;;5136861;27;20524;-68
2024/01/04 10:08:03;;;;;;;8.57;4.70;;;9.90;99.90;;;;;;5137037;27;20503;-69
2024/01/04 10:10:34;;;;;;;8.87;4.03;;;9.90;99.90;;;;;;5136909;27;20454;-69
2024/01/04 10:13:04;;;;;;;7.37;4.50;;;10.00;99.90;;;;;;5136048;27;20418;-69
2024/01/04 10:15:31;;;;;;;8.47;3.50;;;10.00;99.90;;;;;;5136577;27;20477;-69
2024/01/04 10:17:59;;;;;;;7.03;4.50;;;10.10;99.90;;;;;;5118130;27;20450;-69
2024/01/04 10:20:26;;;;;;;11.67;4.30;;;10.20;99.90;;;;;;5136223;27;20869;-69
2024/01/04 10:22:55;;;;;;;4.27;3.40;;;10.30;99.90;;;;;;5136842;27;20446;-69
2024/01/04 10:25:23;;;;;;;6.07;3.97;;;10.40;99.90;;;;;;5136517;27;20442;-69
2024/01/04 10:27:56;;;;;;;11.80;3.53;;;10.60;99.90;;;;;;5137342;27;20461;-69
2024/01/04 10:30:23;;;;;;;4.10;3.10;;;10.80;99.90;;;;;;5136153;27;20959;-69
2024/01/04 10:32:50;;;;;;;7.60;3.13;;;10.80;99.90;;;;;;5136229;27;20445;-69
2024/01/04 10:35:25;;;;;;;5.43;2.60;;;10.90;99.90;;;;;;5135784;27;20531;-69
2024/01/04 10:37:58;;;;;;;4.70;2.50;;;11.00;99.90;;;;;;5117723;27;20925;-69
2024/01/04 10:40:25;;;;;;;3.00;2.20;;;11.20;99.90;;;;;;5136008;27;20465;-69
2024/01/04 10:42:54;;;;;;;3.63;2.20;;;11.60;99.90;;;;;;5136282;27;20480;-69
2024/01/04 10:45:25;;;;;;;5.47;2.20;;;11.70;99.90;;;;;;5136769;27;20442;-69
2024/01/04 10:47:53;;;;;;;7.57;3.00;;;11.70;99.90;;;;;;5136244;27;20479;-69
2024/01/04 10:50:23;;;;;;;3.13;2.00;;;11.60;99.90;;;;;;5136068;27;20462;-70
2024/01/04 10:52:53;;;;;;;4.60;2.30;;;11.60;99.90;;;;;;5136507;27;20414;-69
2024/01/04 10:55:24;;;;;;;10.13;2.27;;;11.40;99.90;;;;;;5135453;27;21078;-69
2024/01/04 10:57:52;;;;;;;6.90;2.37;;;11.40;99.90;;;;;;5135935;27;20419;-70
2024/01/04 11:00:19;;;;;;;3.17;2.23;;;11.30;99.90;;;;;;5135777;27;20458;-70
2024/01/04 11:02:48;;;;;;;8.33;2.80;;;11.10;99.90;;;;;;5136703;27;20449;-69
2024/01/04 11:05:16;;;;;;;4.40;2.17;;;11.10;99.90;;;;;;5138844;27;20434;-69
2024/01/04 11:07:44;;;;;;;5.20;2.13;;;11.00;99.90;;;;;;5137191;27;20466;-69
2024/01/04 11:10:14;;;;;;;5.97;2.10;;;11.00;99.90;;;;;;5135969;27;20475;-69
2024/01/04 11:12:43;;;;;;;8.20;1.97;;;10.90;99.90;;;;;;5136701;27;20430;-69
2024/01/04 11:15:12;;;;;;;8.30;2.07;;;10.90;99.90;;;;;;5135721;27;20484;-71
2024/01/04 11:17:58;;;;;;;5.03;2.20;;;10.90;99.90;;;;;;5136213;27;20445;-69
2024/01/04 11:20:40;;;;;;;4.63;2.97;;;10.80;99.90;;;;;;5135061;27;20458;-69
2024/01/04 11:23:22;;;;;;;5.33;2.10;;;10.80;99.90;;;;;;5135659;27;20458;-69
2024/01/04 11:26:08;;;;;;;6.20;1.93;;;10.60;99.90;;;;;;5134571;27;20418;-69
2024/01/04 11:28:40;;;;;;;4.20;2.13;;;10.50;99.90;;;;;;5118617;27;20423;-69
2024/01/04 11:31:07;;;;;;;11.30;3.30;;;10.40;99.90;;;;;;5135385;27;20507;-69
2024/01/04 11:33:38;;;;;;;7.73;3.00;;;10.30;99.90;;;;;;5135593;27;20448;-69
2024/01/04 11:36:06;;;;;;;5.70;3.20;;;10.40;99.90;;;;;;5116912;27;20470;-69
2024/01/04 11:38:34;;;;;;;17.00;3.93;;;10.40;99.90;;;;;;5135397;27;20438;-69
2024/01/04 11:41:01;;;;;;;8.67;2.67;;;10.40;99.90;;;;;;5135395;27;20466;-69
2024/01/04 11:43:36;;;;;;;12.77;4.33;;;10.40;99.90;;;;;;5135630;27;20446;-69
2024/01/04 11:46:05;;;;;;;14.60;3.60;;;10.40;99.90;;;;;;5135643;27;20418;-68
2024/01/04 11:48:32;;;;;;;12.73;3.40;;;10.40;99.90;;;;;;5117204;27;20897;-69
2024/01/04 11:51:00;;;;;;;10.67;3.80;;;10.40;99.90;;;;;;5135187;27;20839;-69
2024/01/04 11:53:28;;;;;;;20.43;4.50;;;10.50;99.90;;;;;;5135136;27;20532;-69
2024/01/04 11:56:05;;;;;;;11.90;3.90;;;10.70;99.90;;;;;;5134939;27;20478;-69
2024/01/04 11:58:32;;;;;;;17.53;3.37;;;10.70;99.90;;;;;;5134797;27;20449;-70
2024/01/04 12:01:02;;;;;;;10.90;3.77;;;10.60;99.90;;;;;;5134948;27;20462;-69
2024/01/04 12:03:30;;;;;;;16.57;3.80;;;10.70;99.90;;;;;;5134927;27;20927;-70
2024/01/04 12:06:00;;;;;;;14.27;4.00;;;10.70;99.90;;;;;;5135194;27;20938;-70
2024/01/04 12:08:28;;;;;;;11.07;2.90;;;10.70;99.90;;;;;;5134872;27;20524;-70
2024/01/04 12:10:57;;;;;;;15.57;4.30;;;10.80;99.90;;;;;;5134400;27;20986;-70
2024/01/04 12:13:24;;;;;;;13.90;3.63;;;10.80;99.90;;;;;;5134983;27;20818;-70
2024/01/04 12:15:51;;;;;;;10.63;3.70;;;11.00;99.90;;;;;;5134386;28;20488;-70
2024/01/04 12:18:20;;;;;;;13.13;3.00;;;11.10;99.90;;;;;;5134601;28;20978;-70
2024/01/04 12:20:47;;;;;;;15.87;3.43;;;11.10;99.90;;;;;;5140859;28;20477;-70
2024/01/04 12:23:15;;;;;;;19.87;5.13;;;11.10;99.90;;;;;;5135325;28;20449;-70
2024/01/04 12:25:42;;;;;;;20.00;4.30;;;11.10;99.90;;;;;;5135003;28;20806;-70
2024/01/04 12:28:11;;;;;;;15.90;3.40;;;11.20;99.90;;;;;;5134633;28;20533;-70
2024/01/04 12:30:38;;;;;;;12.33;3.30;;;11.20;99.90;;;;;;5134653;28;20895;-70
2024/01/04 12:33:06;;;;;;;16.47;4.07;;;11.00;99.90;;;;;;5134207;28;20448;-70
2024/01/04 12:35:34;;;;;;;12.30;3.03;;;10.90;99.90;;;;;;5134863;27;20479;-70
2024/01/04 12:38:01;;;;;;;10.20;3.10;;;10.80;99.90;;;;;;5139213;27;20511;-70
2024/01/04 12:40:28;;;;;;;12.83;3.80;;;10.70;99.90;;;;;;5139211;27;20453;-70
2024/01/04 12:42:55;;;;;;;10.57;3.30;;;10.70;99.90;;;;;;5138882;27;20446;-70
2024/01/04 12:45:22;;;;;;;20.67;3.37;;;10.80;99.90;;;;;;5139018;27;20477;-70
2024/01/04 12:47:49;;;;;;;19.53;3.97;;;10.80;99.90;;;;;;5138723;27;20532;-70
2024/01/04 12:50:19;;;;;;;11.90;3.00;;;10.80;99.90;;;;;;5119568;27;20544;-70
2024/01/04 12:52:47;;;;;;;15.40;4.50;;;10.90;99.90;;;;;;5138687;27;20423;-70
2024/01/04 12:55:14;;;;;;;18.63;3.60;;;10.90;99.90;;;;;;5138270;27;20484;-70